sensor_id;sensor_type;location;lat;lon;timestamp;pressure;altitude;pressure_sealevel;temperature;humidity
35910;BME280;22004;49.120;-0.200;2022-12-07T00:01:04;102063.09;;;8.34;65.72
35910;BME280;22004;49.120;-0.200;2022-12-07T00:03:30;102049.69;;;8.24;65.63
35910;BME280;22004;49.120;-0.200;2022-12-07T00:05:57;102058.22;;;8.39;65.88
35910;BME280;22004;49.120;-0.200;2022-12-07T00:08:23;102049.38;;;8.38;65.41
35910;BME280;22004;49.120;-0.200;2022-12-07T00:10:48;102046.97;;;8.45;65.50
35910;BME280;22004;49.120;-0.200;2022-12-07T00:13:13;102060.50;;;8.43;65.73
35910;BME280;22004;49.120;-0.200;2022-12-07T00:15:39;102045.28;;;8.44;65.43
35910;BME280;22004;49.120;-0.200;2022-12-07T00:18:04;102035.31;;;8.46;65.35
35910;BME280;22004;49.120;-0.200;2022-12-07T00:20:29;102029.16;;;8.34;65.84
35910;BME280;22004;49.120;-0.200;2022-12-07T00:22:56;102036.88;;;8.48;65.55
35910;BME280;22004;49.120;-0.200;2022-12-07T00:25:21;102030.63;;;8.38;65.75
35910;BME280;22004;49.120;-0.200;2022-12-07T00:27:47;102025.97;;;8.40;65.64
35910;BME280;22004;49.120;-0.200;2022-12-07T00:30:12;102028.13;;;8.46;65.50
35910;BME280;22004;49.120;-0.200;2022-12-07T00:32:37;102023.03;;;8.43;65.58
35910;BME280;22004;49.120;-0.200;2022-12-07T00:35:03;102030.38;;;8.41;65.58
35910;BME280;22004;49.120;-0.200;2022-12-07T00:37:28;102024.63;;;8.46;65.47
35910;BME280;22004;49.120;-0.200;2022-12-07T00:39:54;102021.50;;;8.41;64.76
35910;BME280;22004;49.120;-0.200;2022-12-07T00:42:19;102021.50;;;8.41;65.39
35910;BME280;22004;49.120;-0.200;2022-12-07T00:44:44;102023.78;;;8.45;65.63
35910;BME280;22004;49.120;-0.200;2022-12-07T00:47:10;102026.97;;;8.39;65.76
35910;BME280;22004;49.120;-0.200;2022-12-07T00:49:35;102026.44;;;8.24;65.85
35910;BME280;22004;49.120;-0.200;2022-12-07T00:52:01;102028.94;;;8.37;65.68
35910;BME280;22004;49.120;-0.200;2022-12-07T00:54:26;102031.72;;;8.36;65.44
35910;BME280;22004;49.120;-0.200;2022-12-07T00:56:51;102029.16;;;8.34;65.47
35910;BME280;22004;49.120;-0.200;2022-12-07T00:59:17;102040.00;;;8.33;65.80
35910;BME280;22004;49.120;-0.200;2022-12-07T01:01:42;102034.34;;;8.47;65.43
35910;BME280;22004;49.120;-0.200;2022-12-07T01:04:07;102036.88;;;8.48;65.29
35910;BME280;22004;49.120;-0.200;2022-12-07T01:06:33;102039.03;;;8.34;65.73
35910;BME280;22004;49.120;-0.200;2022-12-07T01:08:59;102036.47;;;8.53;65.39
35910;BME280;22004;49.120;-0.200;2022-12-07T01:11:28;102039.28;;;8.51;65.50
35910;BME280;22004;49.120;-0.200;2022-12-07T01:13:55;102034.47;;;8.55;65.02
35910;BME280;22004;49.120;-0.200;2022-12-07T01:16:23;102034.22;;;8.58;64.96
35910;BME280;22004;49.120;-0.200;2022-12-07T01:18:50;102023.31;;;8.40;64.01
35910;BME280;22004;49.120;-0.200;2022-12-07T01:21:21;102028.88;;;8.58;65.11
35910;BME280;22004;49.120;-0.200;2022-12-07T01:23:47;102006.16;;;8.52;65.18
35910;BME280;22004;49.120;-0.200;2022-12-07T01:26:16;102019.44;;;8.64;64.84
35910;BME280;22004;49.120;-0.200;2022-12-07T01:28:42;102005.34;;;8.62;65.07
35910;BME280;22004;49.120;-0.200;2022-12-07T01:31:13;102011.28;;;8.65;64.44
35910;BME280;22004;49.120;-0.200;2022-12-07T01:33:45;102000.13;;;8.60;64.73
35910;BME280;22004;49.120;-0.200;2022-12-07T01:36:15;102004.81;;;8.68;64.67
35910;BME280;22004;49.120;-0.200;2022-12-07T01:38:42;102009.75;;;8.72;64.89
35910;BME280;22004;49.120;-0.200;2022-12-07T01:41:07;102004.41;;;8.72;64.49
35910;BME280;22004;49.120;-0.200;2022-12-07T01:43:33;102000.28;;;8.68;64.58
35910;BME280;22004;49.120;-0.200;2022-12-07T01:46:00;102006.09;;;8.73;64.50
35910;BME280;22004;49.120;-0.200;2022-12-07T01:48:33;102007.75;;;8.65;64.64
35910;BME280;22004;49.120;-0.200;2022-12-07T01:51:03;102002.69;;;8.62;64.89
35910;BME280;22004;49.120;-0.200;2022-12-07T01:53:30;102006.91;;;8.64;64.80
35910;BME280;22004;49.120;-0.200;2022-12-07T01:55:57;102012.84;;;8.77;64.47
35910;BME280;22004;49.120;-0.200;2022-12-07T01:58:24;102011.44;;;8.73;64.50
35910;BME280;22004;49.120;-0.200;2022-12-07T02:00:50;102001.03;;;8.70;64.60
35910;BME280;22004;49.120;-0.200;2022-12-07T02:03:30;101991.69;;;8.74;64.63
35910;BME280;22004;49.120;-0.200;2022-12-07T02:05:57;101998.44;;;8.59;64.40
35910;BME280;22004;49.120;-0.200;2022-12-07T02:08:24;102001.88;;;8.71;64.65
35910;BME280;22004;49.120;-0.200;2022-12-07T02:10:50;101999.69;;;8.55;64.99
35910;BME280;22004;49.120;-0.200;2022-12-07T02:13:19;102008.59;;;8.75;64.72
35910;BME280;22004;49.120;-0.200;2022-12-07T02:29:16;102007.94;;;8.83;64.24
35910;BME280;22004;49.120;-0.200;2022-12-07T02:36:55;102019.50;;;8.93;64.08
35910;BME280;22004;49.120;-0.200;2022-12-07T02:39:34;102027.94;;;8.38;66.05
35910;BME280;22004;49.120;-0.200;2022-12-07T02:42:07;102038.53;;;8.90;64.26
35910;BME280;22004;49.120;-0.200;2022-12-07T02:44:35;102035.41;;;8.85;64.42
35910;BME280;22004;49.120;-0.200;2022-12-07T02:47:04;102023.75;;;8.86;64.16
35910;BME280;22004;49.120;-0.200;2022-12-07T02:49:33;102016.97;;;8.91;64.26
35910;BME280;22004;49.120;-0.200;2022-12-07T02:51:58;102019.06;;;8.07;66.52
35910;BME280;22004;49.120;-0.200;2022-12-07T02:54:24;102005.94;;;8.85;64.46
35910;BME280;22004;49.120;-0.200;2022-12-07T02:57:00;102019.66;;;8.91;64.14
35910;BME280;22004;49.120;-0.200;2022-12-07T03:00:00;102014.16;;;8.93;64.13
35910;BME280;22004;49.120;-0.200;2022-12-07T03:07:47;102016.81;;;8.83;63.79
35910;BME280;22004;49.120;-0.200;2022-12-07T03:10:22;102024.88;;;8.93;64.06
35910;BME280;22004;49.120;-0.200;2022-12-07T03:15:35;102005.09;;;8.84;64.34
35910;BME280;22004;49.120;-0.200;2022-12-07T03:18:04;101999.84;;;8.63;64.93
35910;BME280;22004;49.120;-0.200;2022-12-07T03:20:32;101994.97;;;8.88;64.19
35910;BME280;22004;49.120;-0.200;2022-12-07T03:22:59;102002.00;;;8.89;64.37
35910;BME280;22004;49.120;-0.200;2022-12-07T03:25:26;102000.63;;;8.94;64.00
35910;BME280;22004;49.120;-0.200;2022-12-07T03:28:03;102002.06;;;8.18;66.01
35910;BME280;22004;49.120;-0.200;2022-12-07T03:30:39;101994.97;;;8.88;64.35
35910;BME280;22004;49.120;-0.200;2022-12-07T03:33:10;102005.09;;;8.74;64.50
35910;BME280;22004;49.120;-0.200;2022-12-07T03:35:41;102009.53;;;7.93;67.47
35910;BME280;22004;49.120;-0.200;2022-12-07T03:38:20;101997.47;;;8.70;64.88
35910;BME280;22004;49.120;-0.200;2022-12-07T03:41:02;101986.09;;;8.77;64.57
35910;BME280;22004;49.120;-0.200;2022-12-07T03:43:29;101990.84;;;8.64;64.96
35910;BME280;22004;49.120;-0.200;2022-12-07T03:51:45;101973.91;;;8.54;65.11
35910;BME280;22004;49.120;-0.200;2022-12-07T03:54:19;101973.66;;;8.26;65.39
35910;BME280;22004;49.120;-0.200;2022-12-07T03:56:47;101973.22;;;8.62;64.95
35910;BME280;22004;49.120;-0.200;2022-12-07T03:59:14;101986.16;;;8.47;65.59
35910;BME280;22004;49.120;-0.200;2022-12-07T04:01:45;101973.34;;;8.60;64.92
35910;BME280;22004;49.120;-0.200;2022-12-07T04:04:16;101970.78;;;8.39;65.78
35910;BME280;22004;49.120;-0.200;2022-12-07T04:06:42;101984.91;;;8.30;65.74
35910;BME280;22004;49.120;-0.200;2022-12-07T04:09:07;101976.59;;;8.54;65.11
35910;BME280;22004;49.120;-0.200;2022-12-07T04:11:32;101973.22;;;8.52;65.35
35910;BME280;22004;49.120;-0.200;2022-12-07T04:13:58;101968.69;;;8.43;64.72
35910;BME280;22004;49.120;-0.200;2022-12-07T04:16:42;101959.56;;;8.65;65.08
35910;BME280;22004;49.120;-0.200;2022-12-07T04:19:07;101968.25;;;8.38;65.90
35910;BME280;22004;49.120;-0.200;2022-12-07T04:21:32;101958.00;;;8.52;65.17
35910;BME280;22004;49.120;-0.200;2022-12-07T04:23:58;101964.75;;;8.47;64.89
35910;BME280;22004;49.120;-0.200;2022-12-07T04:26:23;101967.28;;;8.48;65.41
35910;BME280;22004;49.120;-0.200;2022-12-07T04:28:48;101966.03;;;8.62;65.03
35910;BME280;22004;49.120;-0.200;2022-12-07T04:31:14;101963.22;;;8.23;65.85
35910;BME280;22004;49.120;-0.200;2022-12-07T04:33:39;101964.88;;;8.55;65.19
35910;BME280;22004;49.120;-0.200;2022-12-07T04:36:05;101962.66;;;8.60;65.16
35910;BME280;22004;49.120;-0.200;2022-12-07T04:38:30;101970.69;;;8.50;65.36
35910;BME280;22004;49.120;-0.200;2022-12-07T04:40:55;101962.47;;;8.42;65.25
35910;BME280;22004;49.120;-0.200;2022-12-07T04:43:21;101959.81;;;8.52;65.45
35910;BME280;22004;49.120;-0.200;2022-12-07T04:45:47;101965.00;;;8.44;65.51
35910;BME280;22004;49.120;-0.200;2022-12-07T04:48:13;101965.00;;;8.44;65.51
35910;BME280;22004;49.120;-0.200;2022-12-07T04:50:38;101949.97;;;8.52;65.25
35910;BME280;22004;49.120;-0.200;2022-12-07T04:53:04;101959.28;;;8.58;65.41
35910;BME280;22004;49.120;-0.200;2022-12-07T04:55:29;101956.72;;;8.47;65.58
35910;BME280;22004;49.120;-0.200;2022-12-07T04:57:54;101951.19;;;8.39;65.50
35910;BME280;22004;49.120;-0.200;2022-12-07T05:00:20;101959.41;;;8.47;65.53
35910;BME280;22004;49.120;-0.200;2022-12-07T05:02:45;101958.19;;;7.99;67.17
35910;BME280;22004;49.120;-0.200;2022-12-07T05:05:10;101965.44;;;8.49;65.65
35910;BME280;22004;49.120;-0.200;2022-12-07T05:07:36;101964.59;;;8.48;65.63
35910;BME280;22004;49.120;-0.200;2022-12-07T05:10:01;101962.34;;;8.53;65.45
35910;BME280;22004;49.120;-0.200;2022-12-07T05:12:26;101958.81;;;8.43;65.78
35910;BME280;22004;49.120;-0.200;2022-12-07T05:14:52;101956.44;;;8.50;65.50
35910;BME280;22004;49.120;-0.200;2022-12-07T05:17:17;101968.16;;;8.28;66.01
35910;BME280;22004;49.120;-0.200;2022-12-07T05:19:42;101966.88;;;8.53;65.39
35910;BME280;22004;49.120;-0.200;2022-12-07T05:22:08;101969.53;;;8.53;65.49
35910;BME280;22004;49.120;-0.200;2022-12-07T05:24:33;101968.84;;;8.51;65.31
35910;BME280;22004;49.120;-0.200;2022-12-07T05:26:58;101972.13;;;8.34;65.47
35910;BME280;22004;49.120;-0.200;2022-12-07T05:29:24;101978.06;;;7.97;65.40
35910;BME280;22004;49.120;-0.200;2022-12-07T05:31:49;101965.88;;;8.14;66.43
35910;BME280;22004;49.120;-0.200;2022-12-07T05:34:14;101964.09;;;8.34;66.01
35910;BME280;22004;49.120;-0.200;2022-12-07T05:36:40;101966.63;;;7.95;66.06
35910;BME280;22004;49.120;-0.200;2022-12-07T05:39:05;101955.63;;;8.28;65.69
35910;BME280;22004;49.120;-0.200;2022-12-07T05:41:32;101965.56;;;8.38;65.85
35910;BME280;22004;49.120;-0.200;2022-12-07T05:44:16;101958.47;;;8.27;66.16
35910;BME280;22004;49.120;-0.200;2022-12-07T05:46:41;101960.78;;;8.41;65.61
35910;BME280;22004;49.120;-0.200;2022-12-07T05:49:07;101951.72;;;8.33;65.94
35910;BME280;22004;49.120;-0.200;2022-12-07T05:51:32;101948.88;;;8.24;66.45
35910;BME280;22004;49.120;-0.200;2022-12-07T05:53:58;101940.81;;;8.15;66.10
35910;BME280;22004;49.120;-0.200;2022-12-07T05:56:23;101943.94;;;8.29;66.03
35910;BME280;22004;49.120;-0.200;2022-12-07T05:58:49;101947.06;;;8.35;66.06
35910;BME280;22004;49.120;-0.200;2022-12-07T06:01:33;101942.38;;;8.17;66.09
35910;BME280;22004;49.120;-0.200;2022-12-07T06:03:59;101946.03;;;8.16;66.46
35910;BME280;22004;49.120;-0.200;2022-12-07T06:06:24;101936.72;;;8.41;65.50
35910;BME280;22004;49.120;-0.200;2022-12-07T06:08:49;101938.53;;;8.10;65.84
35910;BME280;22004;49.120;-0.200;2022-12-07T06:11:15;101946.19;;;8.24;64.62
35910;BME280;22004;49.120;-0.200;2022-12-07T06:13:59;101950.78;;;7.51;68.12
35910;BME280;22004;49.120;-0.200;2022-12-07T06:16:24;101955.84;;;6.81;71.18
35910;BME280;22004;49.120;-0.200;2022-12-07T06:18:49;101957.38;;;7.27;67.56
35910;BME280;22004;49.120;-0.200;2022-12-07T06:21:14;101956.88;;;8.24;66.27
35910;BME280;22004;49.120;-0.200;2022-12-07T06:23:40;101957.00;;;8.13;66.57
35910;BME280;22004;49.120;-0.200;2022-12-07T06:26:05;101954.31;;;6.99;67.17
35910;BME280;22004;49.120;-0.200;2022-12-07T06:28:31;101955.25;;;8.02;66.91
35910;BME280;22004;49.120;-0.200;2022-12-07T06:31:00;101957.00;;;6.99;68.48
35910;BME280;22004;49.120;-0.200;2022-12-07T06:33:26;101967.97;;;7.17;67.82
35910;BME280;22004;49.120;-0.200;2022-12-07T06:35:52;101969.81;;;7.05;69.12
35910;BME280;22004;49.120;-0.200;2022-12-07T06:38:17;101956.63;;;6.60;68.88
35910;BME280;22004;49.120;-0.200;2022-12-07T06:40:42;101952.06;;;4.91;73.96
35910;BME280;22004;49.120;-0.200;2022-12-07T06:43:08;101966.66;;;7.11;70.11
35910;BME280;22004;49.120;-0.200;2022-12-07T06:45:33;101959.25;;;8.18;66.21
35910;BME280;22004;49.120;-0.200;2022-12-07T06:47:59;101958.22;;;6.95;67.12
35910;BME280;22004;49.120;-0.200;2022-12-07T06:50:24;101957.19;;;8.21;65.97
35910;BME280;22004;49.120;-0.200;2022-12-07T06:52:51;101961.31;;;7.74;67.20
35910;BME280;22004;49.120;-0.200;2022-12-07T06:55:16;101962.16;;;8.36;65.37
35910;BME280;22004;49.120;-0.200;2022-12-07T06:57:41;101956.00;;;8.45;65.24
35910;BME280;22004;49.120;-0.200;2022-12-07T07:00:07;101958.22;;;8.40;64.75
35910;BME280;22004;49.120;-0.200;2022-12-07T07:02:33;101960.13;;;8.18;65.81
35910;BME280;22004;49.120;-0.200;2022-12-07T07:04:58;101969.53;;;7.82;66.28
35910;BME280;22004;49.120;-0.200;2022-12-07T07:07:24;101963.53;;;8.30;65.31
35910;BME280;22004;49.120;-0.200;2022-12-07T07:09:49;101965.41;;;8.39;65.03
35910;BME280;22004;49.120;-0.200;2022-12-07T07:12:14;101971.91;;;8.37;64.77
35910;BME280;22004;49.120;-0.200;2022-12-07T07:14:40;101969.94;;;8.48;64.77
35910;BME280;22004;49.120;-0.200;2022-12-07T07:17:05;101971.09;;;8.46;64.49
35910;BME280;22004;49.120;-0.200;2022-12-07T07:19:30;101969.09;;;8.38;65.00
35910;BME280;22004;49.120;-0.200;2022-12-07T07:21:56;101972.44;;;8.40;64.82
35910;BME280;22004;49.120;-0.200;2022-12-07T07:24:21;101969.09;;;8.38;65.09
35910;BME280;22004;49.120;-0.200;2022-12-07T07:26:46;101978.13;;;8.47;64.77
35910;BME280;22004;49.120;-0.200;2022-12-07T07:29:12;101974.59;;;8.46;64.83
35910;BME280;22004;49.120;-0.200;2022-12-07T07:31:37;101971.22;;;8.54;64.74
35910;BME280;22004;49.120;-0.200;2022-12-07T07:34:02;101975.31;;;7.87;65.40
35910;BME280;22004;49.120;-0.200;2022-12-07T07:36:28;101970.25;;;8.24;65.31
35910;BME280;22004;49.120;-0.200;2022-12-07T07:38:53;101966.84;;;8.13;65.56
35910;BME280;22004;49.120;-0.200;2022-12-07T07:41:19;101970.09;;;8.47;64.56
35910;BME280;22004;49.120;-0.200;2022-12-07T07:43:44;101966.41;;;8.38;64.65
35910;BME280;22004;49.120;-0.200;2022-12-07T07:46:10;101962.84;;;7.97;64.31
35910;BME280;22004;49.120;-0.200;2022-12-07T07:48:35;101960.72;;;8.32;64.92
35910;BME280;22004;49.120;-0.200;2022-12-07T07:51:05;101969.09;;;8.38;64.79
35910;BME280;22004;49.120;-0.200;2022-12-07T07:53:30;101967.19;;;8.29;64.67
35910;BME280;22004;49.120;-0.200;2022-12-07T07:55:56;101966.25;;;8.40;64.72
35910;BME280;22004;49.120;-0.200;2022-12-07T07:58:22;101968.78;;;7.80;63.67
35910;BME280;22004;49.120;-0.200;2022-12-07T08:00:47;101973.31;;;8.41;64.66
35910;BME280;22004;49.120;-0.200;2022-12-07T08:03:13;101968.13;;;8.49;64.53
35910;BME280;22004;49.120;-0.200;2022-12-07T08:05:38;101983.44;;;8.37;65.05
35910;BME280;22004;49.120;-0.200;2022-12-07T08:08:04;101982.31;;;8.40;65.03
35910;BME280;22004;49.120;-0.200;2022-12-07T08:10:30;101985.00;;;7.58;65.17
35910;BME280;22004;49.120;-0.200;2022-12-07T08:12:57;101990.19;;;8.01;64.67
35910;BME280;22004;49.120;-0.200;2022-12-07T08:15:37;101993.69;;;7.81;65.53
35910;BME280;22004;49.120;-0.200;2022-12-07T08:18:03;101996.63;;;8.29;65.24
35910;BME280;22004;49.120;-0.200;2022-12-07T08:20:33;102004.09;;;8.35;64.41
35910;BME280;22004;49.120;-0.200;2022-12-07T08:22:59;102006.63;;;8.27;65.32
35910;BME280;22004;49.120;-0.200;2022-12-07T08:25:24;101998.88;;;8.34;65.08
35910;BME280;22004;49.120;-0.200;2022-12-07T08:27:50;102006.44;;;7.67;64.80
35910;BME280;22004;49.120;-0.200;2022-12-07T08:30:16;102014.16;;;8.12;65.69
35910;BME280;22004;49.120;-0.200;2022-12-07T08:32:42;102005.44;;;8.41;64.96
35910;BME280;22004;49.120;-0.200;2022-12-07T08:35:09;102004.47;;;8.42;64.86
35910;BME280;22004;49.120;-0.200;2022-12-07T08:37:34;102006.78;;;8.04;64.36
35910;BME280;22004;49.120;-0.200;2022-12-07T08:40:00;102003.22;;;8.46;64.94
35910;BME280;22004;49.120;-0.200;2022-12-07T08:42:25;102002.06;;;8.48;64.68
35910;BME280;22004;49.120;-0.200;2022-12-07T08:44:57;102003.91;;;8.48;64.69
35910;BME280;22004;49.120;-0.200;2022-12-07T08:47:23;101999.94;;;8.42;64.92
35910;BME280;22004;49.120;-0.200;2022-12-07T08:49:50;102015.84;;;8.13;65.69
35910;BME280;22004;49.120;-0.200;2022-12-07T08:52:17;102016.34;;;7.56;67.50
35910;BME280;22004;49.120;-0.200;2022-12-07T08:54:42;102012.66;;;8.29;65.46
35910;BME280;22004;49.120;-0.200;2022-12-07T08:57:09;102003.72;;;8.40;65.40
35910;BME280;22004;49.120;-0.200;2022-12-07T08:59:36;101990.41;;;8.28;65.08
35910;BME280;22004;49.120;-0.200;2022-12-07T09:02:02;101997.84;;;8.25;65.77
35910;BME280;22004;49.120;-0.200;2022-12-07T09:04:27;101994.84;;;8.39;64.93
35910;BME280;22004;49.120;-0.200;2022-12-07T09:06:53;101999.03;;;8.32;65.25
35910;BME280;22004;49.120;-0.200;2022-12-07T09:09:19;101996.94;;;8.36;65.06
35910;BME280;22004;49.120;-0.200;2022-12-07T09:11:44;101996.34;;;8.32;65.21
35910;BME280;22004;49.120;-0.200;2022-12-07T09:14:10;102004.31;;;8.43;64.83
35910;BME280;22004;49.120;-0.200;2022-12-07T09:16:37;102011.19;;;7.85;66.56
35910;BME280;22004;49.120;-0.200;2022-12-07T09:19:02;102012.44;;;7.60;67.63
35910;BME280;22004;49.120;-0.200;2022-12-07T09:21:28;101999.53;;;8.16;65.69
35910;BME280;22004;49.120;-0.200;2022-12-07T09:23:53;102006.28;;;8.11;65.02
35910;BME280;22004;49.120;-0.200;2022-12-07T09:26:18;102011.19;;;8.15;66.14
35910;BME280;22004;49.120;-0.200;2022-12-07T09:28:44;102011.25;;;8.25;65.47
35910;BME280;22004;49.120;-0.200;2022-12-07T09:31:09;102015.44;;;7.87;66.63
35910;BME280;22004;49.120;-0.200;2022-12-07T09:33:35;102007.25;;;8.40;65.33
35910;BME280;22004;49.120;-0.200;2022-12-07T09:36:00;102003.66;;;8.51;65.04
35910;BME280;22004;49.120;-0.200;2022-12-07T09:38:26;102006.34;;;7.99;65.86
35910;BME280;22004;49.120;-0.200;2022-12-07T09:40:52;102012.81;;;7.97;66.40
35910;BME280;22004;49.120;-0.200;2022-12-07T09:43:22;102007.19;;;8.61;64.66
35910;BME280;22004;49.120;-0.200;2022-12-07T09:45:51;102009.13;;;8.59;64.78
35910;BME280;22004;49.120;-0.200;2022-12-07T09:48:38;102008.66;;;8.14;65.78
35910;BME280;22004;49.120;-0.200;2022-12-07T09:51:24;102003.69;;;8.70;64.42
35910;BME280;22004;49.120;-0.200;2022-12-07T09:53:54;101996.94;;;8.76;64.44
35910;BME280;22004;49.120;-0.200;2022-12-07T09:56:22;101993.13;;;8.78;64.09
35910;BME280;22004;49.120;-0.200;2022-12-07T09:58:48;101994.97;;;8.88;64.09
35910;BME280;22004;49.120;-0.200;2022-12-07T10:01:17;101989.63;;;8.88;63.92
35910;BME280;22004;49.120;-0.200;2022-12-07T10:03:53;101987.22;;;8.85;64.40
35910;BME280;22004;49.120;-0.200;2022-12-07T10:06:19;101988.03;;;8.66;64.75
35910;BME280;22004;49.120;-0.200;2022-12-07T10:08:45;101981.44;;;8.89;63.81
35910;BME280;22004;49.120;-0.200;2022-12-07T10:11:11;101980.56;;;8.79;64.36
35910;BME280;22004;49.120;-0.200;2022-12-07T10:13:42;101983.69;;;8.94;63.81
35910;BME280;22004;49.120;-0.200;2022-12-07T10:18:49;101976.50;;;8.94;63.54
35910;BME280;22004;49.120;-0.200;2022-12-07T10:21:17;101976.19;;;8.59;64.86
35910;BME280;22004;49.120;-0.200;2022-12-07T10:24:05;101978.75;;;8.89;64.20
35910;BME280;22004;49.120;-0.200;2022-12-07T10:26:50;101962.41;;;8.83;64.21
35910;BME280;22004;49.120;-0.200;2022-12-07T10:29:30;101964.81;;;8.86;64.45
35910;BME280;22004;49.120;-0.200;2022-12-07T10:34:41;101951.56;;;9.03;64.04
35910;BME280;22004;49.120;-0.200;2022-12-07T10:39:52;101946.78;;;8.88;64.31
35910;BME280;22004;49.120;-0.200;2022-12-07T10:42:28;101945.22;;;8.66;65.09
35910;BME280;22004;49.120;-0.200;2022-12-07T10:45:26;101937.47;;;8.82;64.46
35910;BME280;22004;49.120;-0.200;2022-12-07T10:48:18;101941.16;;;8.91;64.34
35910;BME280;22004;49.120;-0.200;2022-12-07T10:51:36;101942.00;;;9.11;63.83
35910;BME280;22004;49.120;-0.200;2022-12-07T10:54:27;101937.03;;;9.35;63.17
35910;BME280;22004;49.120;-0.200;2022-12-07T10:59:55;101929.81;;;9.55;62.63
35910;BME280;22004;49.120;-0.200;2022-12-07T11:15:18;101917.16;;;9.09;64.01
35910;BME280;22004;49.120;-0.200;2022-12-07T11:18:22;101916.69;;;9.42;63.49
35910;BME280;22004;49.120;-0.200;2022-12-07T11:21:04;101911.06;;;9.36;63.65
35910;BME280;22004;49.120;-0.200;2022-12-07T11:23:56;101903.25;;;9.62;63.16
35910;BME280;22004;49.120;-0.200;2022-12-07T11:31:57;101901.88;;;9.48;63.33
35910;BME280;22004;49.120;-0.200;2022-12-07T11:37:21;101900.72;;;9.60;63.55
35910;BME280;22004;49.120;-0.200;2022-12-07T11:42:18;101893.19;;;8.49;66.50
35910;BME280;22004;49.120;-0.200;2022-12-07T11:44:52;101890.81;;;8.46;65.78
35910;BME280;22004;49.120;-0.200;2022-12-07T11:52:47;101874.84;;;9.69;62.60
35910;BME280;22004;49.120;-0.200;2022-12-07T11:55:21;101867.09;;;9.66;62.94
35910;BME280;22004;49.120;-0.200;2022-12-07T11:57:56;101860.09;;;9.55;63.40
35910;BME280;22004;49.120;-0.200;2022-12-07T12:00:25;101856.66;;;9.63;63.60
35910;BME280;22004;49.120;-0.200;2022-12-07T12:03:05;101855.59;;;9.46;64.21
35910;BME280;22004;49.120;-0.200;2022-12-07T12:05:35;101853.09;;;9.72;63.35
35910;BME280;22004;49.120;-0.200;2022-12-07T12:08:31;101837.53;;;9.48;64.00
35910;BME280;22004;49.120;-0.200;2022-12-07T12:16:46;101824.53;;;9.53;64.17
35910;BME280;22004;49.120;-0.200;2022-12-07T12:22:20;101831.50;;;9.36;64.75
35910;BME280;22004;49.120;-0.200;2022-12-07T12:24:51;101817.56;;;9.32;64.81
35910;BME280;22004;49.120;-0.200;2022-12-07T12:27:27;101820.63;;;9.38;64.47
35910;BME280;22004;49.120;-0.200;2022-12-07T12:29:59;101814.31;;;9.29;64.81
35910;BME280;22004;49.120;-0.200;2022-12-07T12:32:32;101824.63;;;9.24;64.88
35910;BME280;22004;49.120;-0.200;2022-12-07T12:37:47;101816.09;;;9.48;64.27
35910;BME280;22004;49.120;-0.200;2022-12-07T12:42:54;101810.13;;;9.54;64.29
35910;BME280;22004;49.120;-0.200;2022-12-07T12:45:21;101801.88;;;10.20;62.43
35910;BME280;22004;49.120;-0.200;2022-12-07T12:48:03;101805.97;;;10.24;62.35
35910;BME280;22004;49.120;-0.200;2022-12-07T12:50:33;101801.38;;;10.07;62.94
35910;BME280;22004;49.120;-0.200;2022-12-07T12:53:12;101797.19;;;9.77;63.55
35910;BME280;22004;49.120;-0.200;2022-12-07T13:00:46;101795.34;;;9.50;65.03
35910;BME280;22004;49.120;-0.200;2022-12-07T13:03:29;101798.66;;;8.58;67.91
35910;BME280;22004;49.120;-0.200;2022-12-07T13:08:56;101793.03;;;9.27;65.50
35910;BME280;22004;49.120;-0.200;2022-12-07T13:11:32;101786.00;;;9.26;65.86
35910;BME280;22004;49.120;-0.200;2022-12-07T13:17:03;101782.47;;;8.31;69.46
35910;BME280;22004;49.120;-0.200;2022-12-07T13:27:37;101781.19;;;9.30;65.49
35910;BME280;22004;49.120;-0.200;2022-12-07T13:30:14;101771.09;;;9.04;66.59
35910;BME280;22004;49.120;-0.200;2022-12-07T13:32:39;101774.03;;;9.21;65.74
35910;BME280;22004;49.120;-0.200;2022-12-07T13:35:57;101766.22;;;9.27;65.53
35910;BME280;22004;49.120;-0.200;2022-12-07T13:41:10;101767.31;;;9.35;65.67
35910;BME280;22004;49.120;-0.200;2022-12-07T13:44:09;101759.00;;;9.38;65.48
35910;BME280;22004;49.120;-0.200;2022-12-07T13:46:44;101757.31;;;9.37;65.51
35910;BME280;22004;49.120;-0.200;2022-12-07T13:49:18;101745.19;;;9.32;65.42
35910;BME280;22004;49.120;-0.200;2022-12-07T13:51:44;101749.69;;;9.42;65.52
35910;BME280;22004;49.120;-0.200;2022-12-07T13:54:11;101742.63;;;9.41;65.34
35910;BME280;22004;49.120;-0.200;2022-12-07T13:56:38;101745.56;;;9.47;65.22
35910;BME280;22004;49.120;-0.200;2022-12-07T13:59:19;101737.56;;;9.38;65.65
35910;BME280;22004;49.120;-0.200;2022-12-07T14:01:47;101738.25;;;9.40;65.43
35910;BME280;22004;49.120;-0.200;2022-12-07T14:04:36;101739.22;;;9.11;66.51
35910;BME280;22004;49.120;-0.200;2022-12-07T14:07:28;101731.84;;;9.23;66.11
35910;BME280;22004;49.120;-0.200;2022-12-07T14:10:01;101735.16;;;9.35;65.73
35910;BME280;22004;49.120;-0.200;2022-12-07T14:12:29;101723.19;;;9.29;66.12
35910;BME280;22004;49.120;-0.200;2022-12-07T14:14:55;101724.19;;;9.28;66.11
35910;BME280;22004;49.120;-0.200;2022-12-07T14:17:24;101715.16;;;9.29;66.24
35910;BME280;22004;49.120;-0.200;2022-12-07T14:19:57;101723.91;;;8.94;67.55
35910;BME280;22004;49.120;-0.200;2022-12-07T14:25:15;101720.41;;;9.30;66.04
35910;BME280;22004;49.120;-0.200;2022-12-07T14:27:52;101709.53;;;9.32;66.38
35910;BME280;22004;49.120;-0.200;2022-12-07T14:30:21;101715.31;;;9.27;66.43
35910;BME280;22004;49.120;-0.200;2022-12-07T14:32:50;101709.38;;;9.33;66.18
35910;BME280;22004;49.120;-0.200;2022-12-07T14:35:18;101697.06;;;9.41;66.24
35910;BME280;22004;49.120;-0.200;2022-12-07T14:37:46;101697.91;;;9.41;66.10
35910;BME280;22004;49.120;-0.200;2022-12-07T14:40:15;101697.34;;;9.38;66.34
35910;BME280;22004;49.120;-0.200;2022-12-07T14:42:42;101689.38;;;9.55;65.66
35910;BME280;22004;49.120;-0.200;2022-12-07T14:45:17;101691.09;;;9.47;65.87
35910;BME280;22004;49.120;-0.200;2022-12-07T14:47:43;101692.50;;;9.51;65.97
35910;BME280;22004;49.120;-0.200;2022-12-07T14:50:11;101689.41;;;9.46;65.90
35910;BME280;22004;49.120;-0.200;2022-12-07T14:52:39;101694.06;;;9.44;65.91